8Y4 weather

Surfside Seaplane Base
Lino Lakes, Minnesota, United States

Public forecast

Using degrees Fahrenheit for public forecast. Weather courtesy of forecast.io.

Closest aviation weather report (METAR) to Surfside Seaplane Base

Closest report is Anoka County-Blaine (Janes Field) Airport, 4.0 nm (7.4 km) W. Retrieved 2020/01/24 00:45 UTC (42 minutes ago):

KANE 240045Z 04004KT 11/2SM -SN BR OVC007 01/01 A3005

Closest aviation forecast (TAF) to Surfside Seaplane Base

Forecast is more than 12 hours old.

Closest forecast is Anoka County-Blaine (Janes Field) Airport, 4.0 nm (7.4 km) W. Retrieved 2018/02/05 00:21 UTC (2 years ago):

TAF KANE 052320Z 0600/0624 28008KT P6SM FEW025 FM060300 30005KT P6SM FEW250 FM061600 21005KT P6SM SCT250 AMD NOT SKED